Time;durP1;ratioP1;P1;durP2;ratioP2;P2;SDS_P1;SDS_P2;PMS_P1;PMS_P2;Temp;Humidity;BMP_temperature;BMP_pressure;BME280_temperature;BME280_humidity;BME280_pressure;Samples;Min_cycle;Max_cycle;Signal;HPM_P1;HPM_P2
2021/01/09 00:00:08;;;;;;;;;;;;;;;-0.78;100.00;96430.47;5043567;28;20491;-45
2021/01/09 00:02:38;;;;;;;;;;;;;;;-0.61;100.00;96430.47;5043141;28;19928;-44
2021/01/09 00:05:05;;;;;;;;;;;;;;;-0.68;100.00;96433.44;5037128;28;20482;-44
2021/01/09 00:07:32;;;;;;;;;;;;;;;-0.81;100.00;96428.03;5029925;28;20457;-45
2021/01/09 00:10:00;;;;;;;;;;;;;;;-0.79;100.00;96432.22;5039526;28;20535;-44
2021/01/09 00:12:27;;;;;;;;;;;;;;;-0.78;100.00;96427.88;5039624;28;19974;-43
2021/01/09 00:14:54;;;;;;;;;;;;;;;-0.73;100.00;96433.66;5043258;28;19960;-44
2021/01/09 00:17:21;;;;;;;;;;;;;;;-0.84;100.00;96434.19;5033184;28;20299;-48
2021/01/09 00:19:48;;;;;;;;;;;;;;;-0.79;100.00;96439.13;5045962;28;19927;-47
2021/01/09 00:22:14;;;;;;;;;;;;;;;-0.76;100.00;96432.06;5013658;28;19921;-45
2021/01/09 00:24:41;;;;;;;;;;;;;;;-0.82;100.00;96431.53;5031386;28;19921;-46
2021/01/09 00:27:09;;;;;;;;;;;;;;;-0.90;100.00;96434.50;5042354;28;19920;-46
2021/01/09 00:29:36;;;;;;;;;;;;;;;-0.73;100.00;96431.91;5034035;28;19927;-44
2021/01/09 00:32:04;;;;;;;;;;;;;;;-0.75;100.00;96438.09;5039010;28;19928;-44
2021/01/09 00:34:31;;;;;;;;;;;;;;;-0.72;100.00;96433.59;5046897;28;19959;-46
2021/01/09 00:36:58;;;;;;;;;;;;;;;-0.73;100.00;96434.50;5021405;28;19925;-44
2021/01/09 00:39:24;;;;;;;;;;;;;;;-0.73;100.00;96433.66;5040603;28;19943;-44
2021/01/09 00:41:51;;;;;;;;;;;;;;;-0.71;100.00;96439.59;5036136;28;19964;-46
2021/01/09 00:44:19;;;;;;;;;;;;;;;-0.66;100.00;96440.19;5039827;28;20000;-47
2021/01/09 00:46:46;;;;;;;;;;;;;;;-0.75;100.00;96441.50;5046545;28;19921;-47
2021/01/09 00:49:13;;;;;;;;;;;;;;;-0.70;100.00;96445.63;5034180;28;19925;-44
2021/01/09 00:51:39;;;;;;;;;;;;;;;-0.73;100.00;96444.00;5039868;28;19964;-44
2021/01/09 00:54:06;;;;;;;;;;;;;;;-0.75;100.00;96438.94;5046123;28;19968;-46
2021/01/09 00:56:33;;;;;;;;;;;;;;;-0.78;100.00;96446.00;5046482;28;19928;-45
2021/01/09 00:59:01;;;;;;;;;;;;;;;-0.75;100.00;96441.50;5031057;28;19971;-44
2021/01/09 01:01:29;;;;;;;;;;;;;;;-0.78;100.00;96446.00;5042509;28;19974;-46
2021/01/09 01:03:56;;;;;;;;;;;;;;;-0.81;100.00;96440.97;5033272;28;20021;-48
2021/01/09 01:06:23;;;;;;;;;;;;;;;-0.86;100.00;96441.22;5043616;28;19920;-44
2021/01/09 01:08:49;;;;;;;;;;;;;;;-0.84;100.00;96436.78;5028693;28;19929;-49
2021/01/09 01:11:22;;;;;;;;;;;;;;;-0.68;100.00;96443.81;5029281;28;20427;-46
2021/01/09 01:13:49;;;;;;;;;;;;;;;-0.70;100.00;96443.03;5030918;28;19931;-50
2021/01/09 01:16:16;;;;;;;;;;;;;;;-0.67;100.00;96440.28;5032965;28;20384;-48
2021/01/09 01:18:43;;;;;;;;;;;;;;;-0.64;100.00;96446.16;5025925;28;19928;-49
2021/01/09 01:21:10;;;;;;;;;;;;;;;-0.63;100.00;96447.00;5033463;28;20343;-47
2021/01/09 01:23:36;;;;;;;;;;;;;;;-0.68;100.00;96452.41;5028549;28;19928;-45
2021/01/09 01:26:03;;;;;;;;;;;;;;;-0.66;100.00;96449.72;5029873;28;19976;-48
2021/01/09 01:28:30;;;;;;;;;;;;;;;-0.62;100.00;96446.94;5030573;28;19944;-46
2021/01/09 01:30:57;;;;;;;;;;;;;;;-0.63;100.00;96447.81;5025990;28;19971;-45
2021/01/09 01:33:23;;;;;;;;;;;;;;;-0.61;100.00;96458.13;5033321;28;19925;-43
2021/01/09 01:35:51;;;;;;;;;;;;;;;-0.65;100.00;96454.84;5029077;28;19995;-46
2021/01/09 01:38:18;;;;;;;;;;;;;;;-0.70;100.00;96450.78;5033607;28;20010;-45
2021/01/09 01:40:46;;;;;;;;;;;;;;;-0.68;100.00;96457.59;5029443;28;19921;-43
2021/01/09 01:43:14;;;;;;;;;;;;;;;-0.69;100.00;96453.28;5031918;28;20498;-46
2021/01/09 01:45:41;;;;;;;;;;;;;;;-0.70;100.00;96451.63;5028402;28;19929;-46
2021/01/09 01:48:09;;;;;;;;;;;;;;;-0.72;100.00;96456.06;5035478;28;19998;-48
2021/01/09 01:50:36;;;;;;;;;;;;;;;-0.70;100.00;96461.16;5029670;28;19921;-49
2021/01/09 01:53:03;;;;;;;;;;;;;;;-0.68;100.00;96459.34;5030261;28;19921;-46
2021/01/09 01:55:30;;;;;;;;;;;;;;;-0.73;100.00;96457.78;5027479;28;19972;-44
2021/01/09 01:57:57;;;;;;;;;;;;;;;-0.79;100.00;96460.72;5031718;28;19951;-46
2021/01/09 02:00:24;;;;;;;;;;;;;;;-0.91;100.00;96469.06;5031071;28;19924;-45
2021/01/09 02:02:52;;;;;;;;;;;;;;;-0.90;100.00;96464.72;5027984;28;19927;-50
2021/01/09 02:05:20;;;;;;;;;;;;;;;-0.80;100.00;96459.00;5029480;28;19928;-47
2021/01/09 02:07:46;;;;;;;;;;;;;;;-0.89;100.00;96464.66;5029436;28;19929;-46
2021/01/09 02:10:14;;;;;;;;;;;;;;;-0.88;100.00;96457.72;5031557;28;19937;-50
2021/01/09 02:12:42;;;;;;;;;;;;;;;-0.85;100.00;96463.59;5026786;28;19925;-47
2021/01/09 02:15:09;;;;;;;;;;;;;;;-0.87;100.00;96452.47;5015430;28;20032;-46
2021/01/09 02:17:36;;;;;;;;;;;;;;;-0.80;100.00;96460.75;5026171;28;20441;-44
2021/01/09 02:20:03;;;;;;;;;;;;;;;-0.90;100.00;96462.13;5033556;28;19971;-47
2021/01/09 02:22:31;;;;;;;;;;;;;;;-0.91;100.00;96458.69;5029465;28;19923;-48
2021/01/09 02:24:59;;;;;;;;;;;;;;;-0.91;100.00;96455.28;5029801;28;19999;-45
2021/01/09 02:27:26;;;;;;;;;;;;;;;-0.94;100.00;96460.59;5030293;28;19920;-47
2021/01/09 02:29:54;;;;;;;;;;;;;;;-0.92;100.00;96451.88;5030173;28;20021;-46
2021/01/09 02:32:24;;;;;;;;;;;;;;;-0.89;100.00;96451.72;5007559;28;20379;-46
2021/01/09 02:34:52;;;;;;;;;;;;;;;-0.87;100.00;96459.38;5029937;28;19956;-44
2021/01/09 02:37:20;;;;;;;;;;;;;;;-0.96;100.00;96456.34;5029185;28;19928;-44
2021/01/09 02:39:47;;;;;;;;;;;;;;;-0.91;100.00;96453.53;5005593;28;19948;-44
2021/01/09 02:42:14;;;;;;;;;;;;;;;-0.99;100.00;96447.91;5014375;28;19924;-44
2021/01/09 02:44:41;;;;;;;;;;;;;;;-0.90;100.00;96450.00;5035172;28;19925;-45
2021/01/09 02:47:08;;;;;;;;;;;;;;;-0.91;100.00;96450.94;5029993;28;19948;-45
2021/01/09 02:49:35;;;;;;;;;;;;;;;-0.85;100.00;96453.22;5033861;28;20442;-45
2021/01/09 02:52:02;;;;;;;;;;;;;;;-0.88;100.00;96452.53;5040439;28;19925;-43
2021/01/09 02:54:28;;;;;;;;;;;;;;;-0.88;100.00;96455.97;5021242;28;19932;-45
2021/01/09 02:56:55;;;;;;;;;;;;;;;-0.84;100.00;96457.50;5016822;28;19928;-48
2021/01/09 02:59:23;;;;;;;;;;;;;;;-0.86;100.00;96453.28;5001306;28;19917;-44
2021/01/09 03:01:50;;;;;;;;;;;;;;;-0.86;100.00;96453.28;5037707;28;19921;-44
2021/01/09 03:04:17;;;;;;;;;;;;;;;-0.83;100.00;96455.72;5016318;28;19929;-44
2021/01/09 03:06:43;;;;;;;;;;;;;;;-0.81;100.00;96449.56;5036682;28;19987;-44
2021/01/09 03:09:11;;;;;;;;;;;;;;;-0.90;100.00;96457.78;5029973;28;19925;-48
2021/01/09 03:11:39;;;;;;;;;;;;;;;-0.90;100.00;96456.94;5031985;28;19921;-44
2021/01/09 03:14:06;;;;;;;;;;;;;;;-0.89;100.00;96456.06;5019031;28;19924;-45
2021/01/09 03:16:33;;;;;;;;;;;;;;;-0.82;100.00;96455.69;5005849;28;19924;-44
2021/01/09 03:19:00;;;;;;;;;;;;;;;-0.93;100.00;96457.09;5031576;28;19924;-49
2021/01/09 03:21:28;;;;;;;;;;;;;;;-0.93;100.00;96459.69;5007606;28;19943;-44
2021/01/09 03:23:54;;;;;;;;;;;;;;;-0.92;100.00;96464.81;5016743;28;19921;-47
2021/01/09 03:26:21;;;;;;;;;;;;;;;-0.90;100.00;96460.38;5034907;28;19928;-44
2021/01/09 03:28:48;;;;;;;;;;;;;;;-0.96;100.00;96466.69;5010620;28;20339;-44
2021/01/09 03:31:14;;;;;;;;;;;;;;;-0.82;100.00;96462.59;5032573;28;19921;-44
2021/01/09 03:33:42;;;;;;;;;;;;;;;-0.93;100.00;96465.69;5025200;28;20368;-51
2021/01/09 03:36:09;;;;;;;;;;;;;;;-0.93;100.00;96465.69;5035586;28;19929;-45
2021/01/09 03:38:36;;;;;;;;;;;;;;;-0.93;100.00;96468.28;5017705;28;19975;-46
2021/01/09 03:41:03;;;;;;;;;;;;;;;-0.86;100.00;96474.00;5011479;28;19935;-45
2021/01/09 03:43:30;;;;;;;;;;;;;;;-0.80;100.00;96471.94;5014298;28;19931;-46
2021/01/09 03:45:56;;;;;;;;;;;;;;;-0.84;100.00;96474.78;5012255;28;19921;-45
2021/01/09 03:48:23;;;;;;;;;;;;;;;-0.78;100.00;96469.31;5003149;28;19929;-44
2021/01/09 03:50:51;;;;;;;;;;;;;;;-0.82;100.00;96471.22;5026582;28;19960;-46
2021/01/09 03:53:18;;;;;;;;;;;;;;;-0.79;100.00;96475.38;5033723;28;19987;-45
2021/01/09 03:55:45;;;;;;;;;;;;;;;-0.84;100.00;96472.19;5028579;28;19925;-45
2021/01/09 03:58:12;;;;;;;;;;;;;;;-0.87;100.00;96475.75;5037996;28;19924;-49
2021/01/09 04:00:38;;;;;;;;;;;;;;;-0.79;100.00;96475.38;5023265;28;20002;-45
2021/01/09 04:03:05;;;;;;;;;;;;;;;-0.86;100.00;96477.44;5021276;28;20019;-46
2021/01/09 04:05:37;;;;;;;;;;;;;;;-0.83;100.00;96469.50;5028975;28;19939;-48
2021/01/09 04:08:05;;;;;;;;;;;;;;;-0.80;100.00;96465.94;5030254;28;19975;-48
2021/01/09 04:10:32;;;;;;;;;;;;;;;-0.79;100.00;96472.78;5031704;28;19921;-46
2021/01/09 04:12:59;;;;;;;;;;;;;;;-0.87;100.00;96469.75;5014455;28;20452;-44
2021/01/09 04:15:26;;;;;;;;;;;;;;;-0.72;100.00;96462.06;5033213;28;20304;-49
2021/01/09 04:17:53;;;;;;;;;;;;;;;-0.70;100.00;96462.00;5001396;28;19925;-44
2021/01/09 04:20:20;;;;;;;;;;;;;;;-0.75;100.00;96459.63;5031663;28;19921;-49
2021/01/09 04:22:47;;;;;;;;;;;;;;;-0.79;100.00;96465.03;5011104;28;19925;-47
2021/01/09 04:25:15;;;;;;;;;;;;;;;-0.75;100.00;96470.00;5032268;28;20027;-48
2021/01/09 04:27:42;;;;;;;;;;;;;;;-0.71;100.00;96470.69;5013787;28;19925;-44
2021/01/09 04:30:09;;;;;;;;;;;;;;;-0.75;100.00;96469.16;5034631;28;19994;-48
2021/01/09 04:32:36;;;;;;;;;;;;;;;-0.89;100.00;96472.41;5013274;28;19924;-45
2021/01/09 04:35:04;;;;;;;;;;;;;;;-0.80;100.00;96477.13;5032128;28;19927;-46
2021/01/09 04:37:31;;;;;;;;;;;;;;;-0.86;100.00;96476.59;5013813;28;20003;-47
2021/01/09 04:39:58;;;;;;;;;;;;;;;-0.87;100.00;96473.16;5029949;28;19921;-43
2021/01/09 04:42:25;;;;;;;;;;;;;;;-0.91;100.00;96473.41;5031099;28;19916;-43
2021/01/09 04:44:53;;;;;;;;;;;;;;;-0.90;100.00;96473.31;5029695;28;20287;-45
2021/01/09 04:47:20;;;;;;;;;;;;;;;-1.01;100.00;96473.00;5028335;28;20394;-46
2021/01/09 04:49:46;;;;;;;;;;;;;;;-1.00;100.00;96465.19;5032120;28;19994;-46
2021/01/09 04:52:14;;;;;;;;;;;;;;;-1.04;100.00;96475.72;5036933;28;19928;-48
2021/01/09 04:54:40;;;;;;;;;;;;;;;-1.01;100.00;96479.00;5029924;28;20016;-44
2021/01/09 04:57:07;;;;;;;;;;;;;;;-1.01;100.00;96483.34;5019347;28;19936;-47
2021/01/09 04:59:35;;;;;;;;;;;;;;;-1.04;100.00;96489.50;5016247;28;20384;-47
2021/01/09 05:02:02;;;;;;;;;;;;;;;-1.02;100.00;96492.03;5030543;28;20433;-44
2021/01/09 05:04:29;;;;;;;;;;;;;;;-1.00;100.00;96495.38;5011222;28;19955;-43
2021/01/09 05:06:56;;;;;;;;;;;;;;;-1.05;100.00;96500.78;5021574;28;19929;-43
2021/01/09 05:09:23;;;;;;;;;;;;;;;-1.05;100.00;96489.59;5029889;28;19978;-47
2021/01/09 05:11:50;;;;;;;;;;;;;;;-1.02;100.00;96497.22;5004613;28;19972;-46
2021/01/09 05:14:16;;;;;;;;;;;;;;;-1.10;100.00;96492.41;5008124;28;19921;-47
2021/01/09 05:16:44;;;;;;;;;;;;;;;-0.99;100.00;96495.31;5009552;28;19921;-44
2021/01/09 05:19:16;;;;;;;;;;;;;;;-0.98;100.00;96498.75;4989430;28;20248;-45
2021/01/09 05:21:43;;;;;;;;;;;;;;;-1.03;100.00;96501.56;4992765;28;19925;-46
2021/01/09 05:24:10;;;;;;;;;;;;;;;-1.10;100.00;96499.31;5008368;28;19929;-50
2021/01/09 05:26:37;;;;;;;;;;;;;;;-1.03;100.00;96504.16;5011865;28;19921;-51
2021/01/09 05:29:05;;;;;;;;;;;;;;;-1.03;100.00;96500.72;5009620;28;20383;-46
2021/01/09 05:31:35;;;;;;;;;;;;;;;-1.01;100.00;96506.66;5012100;28;19959;-44
2021/01/09 05:34:03;;;;;;;;;;;;;;;-1.08;100.00;96513.03;5015700;28;19956;-44
2021/01/09 05:36:30;;;;;;;;;;;;;;;-1.07;100.00;96510.34;5044885;28;20414;-46
2021/01/09 05:38:57;;;;;;;;;;;;;;;-1.17;100.00;96513.44;5039150;28;19925;-50
2021/01/09 05:41:25;;;;;;;;;;;;;;;-1.16;100.00;96520.31;5024586;28;20030;-46
2021/01/09 05:43:58;;;;;;;;;;;;;;;-1.20;100.00;96515.28;5037081;28;19929;-45
2021/01/09 05:46:25;;;;;;;;;;;;;;;-1.18;100.00;96512.59;5040423;28;20367;-46
2021/01/09 05:48:52;;;;;;;;;;;;;;;-1.26;100.00;96520.72;5034721;28;20444;-45
2021/01/09 05:51:20;;;;;;;;;;;;;;;-1.22;100.00;96518.84;5015580;28;19929;-45
2021/01/09 05:53:47;;;;;;;;;;;;;;;-1.17;100.00;96521.22;5037106;28;19925;-44
2021/01/09 05:56:14;;;;;;;;;;;;;;;-1.25;100.00;96529.31;5034514;28;19968;-45
2021/01/09 05:58:41;;;;;;;;;;;;;;;-1.35;100.00;96526.31;5020019;28;19952;-44
2021/01/09 06:01:09;;;;;;;;;;;;;;;-1.46;100.00;96526.81;5029056;28;19937;-44
2021/01/09 06:03:40;;;;;;;;;;;;;;;-1.37;100.00;96533.34;5052227;28;19988;-47
2021/01/09 06:06:21;;;;;;;;;;;;;;;-1.43;100.00;96528.44;5041033;28;20268;-45
2021/01/09 06:08:53;;;;;;;;;;;;;;;-1.42;100.00;96531.84;5036604;28;19960;-44
2021/01/09 06:11:20;;;;;;;;;;;;;;;-1.41;100.00;96533.53;5025811;28;19924;-43
2021/01/09 06:13:48;;;;;;;;;;;;;;;-1.41;100.00;96536.09;5021917;28;19967;-46
2021/01/09 06:16:15;;;;;;;;;;;;;;;-1.33;100.00;96534.03;5049967;28;19920;-44
2021/01/09 06:18:42;;;;;;;;;;;;;;;-1.34;100.00;96533.19;5051917;28;20016;-43
2021/01/09 06:21:09;;;;;;;;;;;;;;;-1.27;100.00;96526.00;5017526;28;19924;-44
2021/01/09 06:23:36;;;;;;;;;;;;;;;-1.22;100.00;96532.63;5048450;28;20389;-44
2021/01/09 06:26:04;;;;;;;;;;;;;;;-1.18;100.00;96528.13;5041617;28;20330;-43
2021/01/09 06:28:32;;;;;;;;;;;;;;;-1.17;100.00;96532.41;5048966;28;19917;-44
2021/01/09 06:31:00;;;;;;;;;;;;;;;-1.15;100.00;96535.75;5047740;28;19928;-43
2021/01/09 06:33:27;;;;;;;;;;;;;;;-1.10;100.00;96543.28;5022993;28;20047;-44
2021/01/09 06:35:55;;;;;;;;;;;;;;;-1.08;100.00;96544.06;5042421;28;19925;-44
2021/01/09 06:38:21;;;;;;;;;;;;;;;-1.09;100.00;96540.66;5031661;28;19920;-43
2021/01/09 06:40:50;;;;;;;;;;;;;;;-1.06;100.00;96552.63;5021620;28;19935;-47
2021/01/09 06:43:17;;;;;;;;;;;;;;;-1.06;100.00;96552.63;5048506;28;19947;-43
2021/01/09 06:45:44;;;;;;;;;;;;;;;-1.07;100.00;96553.50;5029318;28;19921;-46
2021/01/09 06:48:11;;;;;;;;;;;;;;;-1.12;100.00;96552.91;5036823;28;20425;-45
2021/01/09 06:50:39;;;;;;;;;;;;;;;-1.06;100.00;96555.22;5030015;28;19920;-43
2021/01/09 06:53:05;;;;;;;;;;;;;;;-1.02;100.00;96552.41;5024634;28;19928;-47
2021/01/09 06:56:02;;;;;;;;;;;;;;;-1.01;100.00;96553.22;5048535;28;19921;-44
2021/01/09 06:58:33;;;;;;;;;;;;;;;-0.99;100.00;96556.59;5027221;28;20981;-46
2021/01/09 07:01:19;;;;;;;;;;;;;;;-0.88;100.00;96556.09;5042522;28;19929;-44
2021/01/09 07:03:46;;;;;;;;;;;;;;;-0.91;100.00;96551.88;5046812;28;20387;-43
2021/01/09 07:06:12;;;;;;;;;;;;;;;-0.93;100.00;96553.69;5052015;28;20024;-47
2021/01/09 07:08:40;;;;;;;;;;;;;;;-0.82;100.00;96555.81;5035330;28;19968;-45
2021/01/09 07:11:06;;;;;;;;;;;;;;;-0.82;100.00;96555.81;5052284;28;19920;-46
2021/01/09 07:13:34;;;;;;;37.80;17.60;;;;;;;-0.76;100.00;96560.66;5039930;28;19921;-43
2021/01/09 07:16:06;;;;;;;43.33;19.23;;;;;;;-0.62;100.00;96560.00;5051077;28;20057;-43
2021/01/09 07:18:34;;;;;;;37.60;18.35;;;;;;;-0.56;100.00;96567.50;5042667;28;20087;-47
2021/01/09 07:21:02;;;;;;;40.17;18.60;;;;;;;-0.60;100.00;96566.78;5065866;28;20060;-46
2021/01/09 07:23:29;;;;;;;90.65;41.33;;;;;;;-0.45;100.00;96570.38;5048693;28;20128;-44
2021/01/09 07:25:57;;;;;;;47.55;21.65;;;;;;;-0.57;100.00;96576.19;5045809;28;20087;-45
2021/01/09 07:28:25;;;;;;;37.78;19.13;;;;;;;-0.53;100.00;96582.88;5044137;28;20041;-46
2021/01/09 07:31:03;;;;;;;41.58;19.60;;;;;;;-0.49;100.00;96582.66;5043463;28;20139;-44
2021/01/09 07:33:32;;;;;;;41.60;20.60;;;;;;;-0.44;100.00;96585.03;5047682;28;20504;-45
2021/01/09 07:36:01;;;;;;;43.55;21.17;;;;;;;-0.40;100.00;96586.56;5037550;28;20069;-44
2021/01/09 07:38:28;;;;;;;39.75;20.27;;;;;;;-0.31;100.00;96586.13;5050222;28;20478;-45
2021/01/09 07:40:56;;;;;;;44.85;20.95;;;;;;;-0.23;100.00;96575.38;5035965;28;20037;-45
2021/01/09 07:43:37;;;;;;;44.65;20.90;;;;;;;-0.03;99.50;96587.34;5038947;28;20516;-47
2021/01/09 07:46:23;;;;;;;40.17;19.30;;;;;;;-0.03;99.03;96582.16;5040734;28;20053;-47
2021/01/09 07:48:50;;;;;;;39.08;19.67;;;;;;;-0.02;98.61;96583.84;5031693;28;20038;-47
2021/01/09 07:51:17;;;;;;;39.28;19.42;;;;;;;0.01;98.14;96585.44;5044857;28;20057;-47
2021/01/09 07:53:46;;;;;;;41.40;20.05;;;;;;;-0.05;97.55;96584.81;5035887;28;20064;-49
2021/01/09 07:56:34;;;;;;;39.90;20.27;;;;;;;0.26;96.77;96587.63;5040275;28;20049;-46
2021/01/09 07:59:01;;;;;;;38.78;19.17;;;;;;;0.39;95.30;96583.47;5037373;28;20041;-51
2021/01/09 08:01:29;;;;;;;40.30;20.58;;;;;;;0.34;94.91;96591.47;5039294;28;20529;-47
2021/01/09 08:03:57;;;;;;;37.83;20.02;;;;;;;0.43;95.07;96591.00;5054678;28;20053;-48
2021/01/09 08:06:24;;;;;;;44.72;20.13;;;;;;;0.38;94.26;96599.94;5031148;28;20044;-51
2021/01/09 08:08:51;;;;;;;39.65;19.42;;;;;;;0.30;94.35;96596.91;5042227;28;20067;-49
2021/01/09 08:11:18;;;;;;;36.35;19.33;;;;;;;0.59;93.44;96606.63;5043943;28;20083;-48
2021/01/09 08:13:45;;;;;;;40.80;19.80;;;;;;;0.71;91.29;96610.34;5041473;28;20118;-49
2021/01/09 08:16:12;;;;;;;35.60;19.08;;;;;;;0.66;91.47;96608.00;5038280;28;20455;-49
2021/01/09 08:18:40;;;;;;;39.17;19.88;;;;;;;0.86;90.71;96606.94;5049534;28;20068;-47
2021/01/09 08:21:07;;;;;;;38.65;19.42;;;;;;;0.99;89.78;96604.50;5050877;28;20049;-47
2021/01/09 08:23:34;;;;;;;38.67;19.95;;;;;;;0.91;88.43;96604.94;5057241;28;20576;-47
2021/01/09 08:26:10;;;;;;;42.40;20.95;;;;;;;1.12;88.67;96602.94;5042045;28;20523;-47
2021/01/09 08:28:38;;;;;;;39.63;20.73;;;;;;;1.18;87.88;96614.75;5041312;28;20495;-46
2021/01/09 08:31:08;;;;;;;37.88;20.20;;;;;;;1.17;86.84;96618.25;5034542;28;20128;-50
2021/01/09 08:33:35;;;;;;;38.72;20.27;;;;;;;1.22;86.48;96616.25;5044952;28;20051;-48
2021/01/09 08:36:04;;;;;;;37.35;19.05;;;;;;;1.37;85.35;96622.38;5041650;28;20500;-49
2021/01/09 08:38:32;;;;;;;34.63;19.10;;;;;;;1.44;85.04;96618.50;5019340;28;20499;-50
2021/01/09 08:41:00;;;;;;;35.70;18.88;;;;;;;1.38;84.49;96624.91;5052584;28;20049;-50
2021/01/09 08:43:27;;;;;;;33.38;18.33;;;;;;;1.41;83.77;96629.94;5047350;28;20052;-46
2021/01/09 08:45:54;;;;;;;34.15;17.58;;;;;;;1.60;83.39;96627.13;5025212;28;20500;-51
2021/01/09 08:48:23;;;;;;;157.70;90.05;;;;;;;1.77;82.11;96626.19;5047092;28;20593;-48
2021/01/09 08:51:06;;;;;;;40.00;19.23;;;;;;;1.89;80.96;96627.25;5038657;28;20132;-46
2021/01/09 08:53:39;;;;;;;36.22;19.80;;;;;;;1.92;81.15;96627.06;5037150;28;20061;-52
2021/01/09 08:56:06;;;;;;;32.65;18.10;;;;;;;2.00;79.54;96629.28;5044616;28;20119;-46
2021/01/09 08:58:34;;;;;;;36.38;18.42;;;;;;;2.02;79.49;96628.22;5043605;28;20044;-47
2021/01/09 09:01:03;;;;;;;34.63;19.13;;;;;;;1.88;79.99;96628.19;5054067;28;20048;-48
2021/01/09 09:03:32;;;;;;;31.48;17.75;;;;;;;2.22;79.40;96631.44;5045241;28;20041;-51
2021/01/09 09:06:08;;;;;;;37.07;18.77;;;;;;;2.34;78.70;96630.72;5046583;28;20040;-49
2021/01/09 09:08:35;;;;;;;36.20;21.65;;;;;;;2.09;78.95;96637.34;5030947;28;20429;-51
2021/01/09 09:11:04;;;;;;;34.42;22.33;;;;;;;2.07;79.20;96636.63;5042959;28;20401;-51
2021/01/09 09:13:32;;;;;;;35.97;22.35;;;;;;;2.38;77.74;96634.84;5037522;28;20914;-48
2021/01/09 09:16:15;;;;;;;35.13;22.55;;;;;;;2.32;78.80;96630.81;5047513;28;20564;-48
2021/01/09 09:18:42;;;;;;;36.10;22.17;;;;;;;2.51;77.08;96632.34;5038416;28;20409;-49
2021/01/09 09:21:10;;;;;;;35.13;22.42;;;;;;;2.64;77.50;96630.69;5039943;28;20405;-49
2021/01/09 09:23:38;;;;;;;33.67;22.65;;;;;;;2.42;77.61;96636.34;5040712;28;20500;-47
2021/01/09 09:26:07;;;;;;;37.97;22.73;;;;;;;2.60;76.46;96637.00;5041304;28;20419;-52
2021/01/09 09:28:45;;;;;;;35.30;22.40;;;;;;;2.50;77.27;96641.09;5031852;28;20410;-51
2021/01/09 09:31:24;;;;;;;35.97;22.73;;;;;;;2.26;78.85;96643.34;5040803;28;20774;-50
2021/01/09 09:33:58;;;;;;;35.22;22.65;;;;;;;2.37;78.25;96643.56;5032164;28;20421;-50
2021/01/09 09:36:27;;;;;;;35.07;22.80;;;;;;;2.43;77.82;96638.00;5048236;28;21070;-49
2021/01/09 09:38:54;;;;;;;36.60;22.33;;;;;;;2.69;76.16;96633.84;5046108;28;20409;-49
2021/01/09 09:41:22;;;;;;;35.60;22.77;;;;;;;2.96;75.51;96643.53;5049040;28;20408;-53
2021/01/09 09:43:56;;;;;;;36.03;23.17;;;;;;;3.00;75.32;96638.06;5035596;28;20439;-47
2021/01/09 09:46:24;;;;;;;34.72;22.17;;;;;;;2.99;75.59;96649.38;5037903;28;20424;-49
2021/01/09 09:48:51;;;;;;;33.90;22.23;;;;;;;3.20;74.76;96643.78;5033297;28;20452;-51
2021/01/09 09:51:19;;;;;;;34.45;22.27;;;;;;;2.97;75.08;96642.63;5046414;28;20445;-52
2021/01/09 09:53:54;;;;;;;33.15;19.58;;;;;;;3.32;73.33;96641.25;5041048;28;20061;-51
2021/01/09 09:56:22;;;;;;;;;;;;;;;3.66;71.97;96638.31;5042755;28;20095;-50
2021/01/09 09:58:59;;;;;;;;;;;;;;;3.65;71.70;96634.00;5048295;28;20032;-50
2021/01/09 10:01:27;;;;;;;;;;;;;;;3.87;70.51;96628.28;5031101;28;20019;-50
2021/01/09 10:03:54;;;;;;;;;;;;;;;3.17;72.57;96628.38;5049920;28;19928;-51
2021/01/09 10:06:22;;;;;;;;;;;;;;;3.13;73.41;96625.09;5049111;28;20394;-51
2021/01/09 10:08:48;;;;;;;;;;;;;;;3.24;73.67;96619.22;5043181;28;19920;-49
2021/01/09 10:11:16;;;;;;;;;;;;;;;3.61;71.44;96617.72;5034707;28;19951;-49
2021/01/09 10:13:43;;;;;;;;;;;;;;;3.76;69.96;96616.75;5042895;28;19921;-53
2021/01/09 10:16:10;;;;;;;;;;;;;;;4.01;69.17;96615.16;5039567;28;19988;-50
2021/01/09 10:18:37;;;;;;;;;;;;;;;4.70;66.28;96607.94;5046613;28;19920;-49
2021/01/09 10:21:04;;;;;;;;;;;;;;;5.16;63.92;96605.59;5046329;28;19986;-52
2021/01/09 10:23:30;;;;;;;;;;;;;;;5.24;63.50;96610.28;5028963;28;20346;-47
2021/01/09 10:25:58;;;;;;;;;;;;;;;5.90;61.67;96600.31;5042805;28;19920;-48
2021/01/09 10:28:26;;;;;;;;;;;;;;;6.63;58.99;96592.22;5047760;28;20383;-50
2021/01/09 10:30:53;;;;;;;;;;;;;;;7.13;56.95;96599.78;5034011;28;19979;-47
2021/01/09 10:33:20;;;;;;;;;;;;;;;7.77;55.86;96591.19;5043940;28;19925;-47
2021/01/09 10:35:47;;;;;;;;;;;;;;;7.04;56.46;96584.75;5044321;28;19929;-49
2021/01/09 10:38:14;;;;;;;;;;;;;;;6.87;57.62;96586.06;5045557;28;19921;-50
2021/01/09 10:40:42;;;;;;;;;;;;;;;6.00;59.83;96590.03;5051257;28;20006;-47
2021/01/09 10:43:09;;;;;;;32.17;18.35;;;;;;;6.04;59.63;96589.69;5045161;28;19925;-47
2021/01/09 10:45:38;;;;;;;28.85;18.17;;;;;;;6.76;58.85;96589.50;5033810;28;20140;-48
2021/01/09 10:48:07;;;;;;;31.27;18.17;;;;;;;6.46;59.04;96591.84;5038502;28;20072;-54
2021/01/09 10:50:36;;;;;;;28.67;17.55;;;;;;;6.60;58.94;96589.81;5041947;28;20101;-50
2021/01/09 10:53:04;;;;;;;31.95;18.23;;;;;;;6.45;59.44;96592.78;5035907;28;20049;-52
2021/01/09 10:55:31;;;;;;;31.88;19.13;;;;;;;5.97;60.33;96587.66;5046891;28;20140;-51
2021/01/09 10:57:58;;;;;;;31.02;18.73;;;;;;;5.72;61.43;96590.25;5039141;28;20423;-52
2021/01/09 11:00:26;;;;;;;28.75;18.48;;;;;;;5.70;60.63;96588.69;5055220;28;20519;-51
2021/01/09 11:02:54;;;;;;;29.70;16.92;;;;;;;5.23;62.99;96592.94;5045439;28;20045;-52
2021/01/09 11:05:21;;;;;;;29.70;18.58;;;;;;;5.06;64.92;96598.47;5043624;28;20522;-47
2021/01/09 11:07:48;;;;;;;31.92;18.27;;;;;;;4.82;65.86;96598.41;5034186;28;20038;-47
2021/01/09 11:10:16;;;;;;;29.08;17.50;;;;;;;5.35;63.74;96586.81;5050208;28;20048;-52
2021/01/09 11:13:01;;;;;;;31.23;19.30;;;;;;;6.27;61.57;96581.94;5038814;28;20115;-46
2021/01/09 11:15:28;;;;;;;31.27;18.88;;;;;;;7.23;58.26;96576.28;5039560;28;20048;-51
2021/01/09 11:17:56;;;;;;;28.23;17.63;;;;;;;6.60;57.89;96574.09;5042219;28;20403;-49
2021/01/09 11:20:24;;;;;;;27.58;17.80;;;;;;;7.56;56.65;96576.19;5057622;28;20415;-49
2021/01/09 11:22:51;;;;;;;31.70;18.00;;;;;;;8.06;54.05;96579.16;5048386;28;20051;-51
2021/01/09 11:25:18;;;;;;;34.22;20.02;;;;;;;7.44;55.33;96573.75;5052966;28;20088;-50
2021/01/09 11:27:45;;;;;;;30.65;18.60;;;;;;;6.46;57.99;96573.50;5040858;28;20130;-49
2021/01/09 11:30:13;;;;;;;30.63;18.80;;;;;;;5.88;59.81;96573.41;5046007;28;20041;-52
2021/01/09 11:32:40;;;;;;;31.63;17.88;;;;;;;4.47;63.60;96583.38;5042755;28;20099;-46
2021/01/09 11:35:09;;;;;;;28.73;17.77;;;;;;;4.33;66.18;96576.47;5045625;28;20114;-51
2021/01/09 11:37:36;;;;;;;31.13;19.15;;;;;;;4.40;66.60;96576.91;5038607;28;20119;-50
2021/01/09 11:40:04;;;;;;;30.67;18.80;;;;;;;4.65;65.60;96576.09;5046653;28;20130;-52
2021/01/09 11:42:31;;;;;;;33.60;19.52;;;;;;;5.13;64.70;96584.06;5038653;28;20041;-50
2021/01/09 11:44:59;;;;;;;31.63;18.60;;;;;;;5.88;61.87;96569.03;5038120;28;20111;-48
2021/01/09 11:47:26;;;;;;;29.70;17.77;;;;;;;5.88;61.91;96571.66;5039815;28;20557;-49
2021/01/09 11:49:53;;;;;;;30.42;18.33;;;;;;;6.70;58.66;96578.66;5043687;28;20491;-48
2021/01/09 11:52:21;;;;;;;30.42;18.60;;;;;;;7.19;57.52;96570.44;5047928;28;20071;-53
2021/01/09 11:54:48;;;;;;;29.65;18.85;;;;;;;7.41;56.24;96574.00;5041569;28;20053;-48
2021/01/09 11:57:15;;;;;;;29.08;17.63;;;;;;;6.95;57.38;96572.34;5054451;28;20080;-50
2021/01/09 11:59:42;;;;;;;30.58;19.05;;;;;;;6.92;58.26;96580.44;5047444;28;20048;-48
2021/01/09 12:02:09;;;;;;;36.70;20.13;;;;;;;6.92;57.64;96575.19;5048764;28;20049;-47
2021/01/09 12:04:37;;;;;;;35.53;20.58;;;;;;;7.42;56.11;96573.84;5015582;28;20108;-49
2021/01/09 12:07:03;;;;;;;34.83;21.33;;;;;;;7.36;56.92;96575.19;5046106;28;20048;-49
2021/01/09 12:09:31;;;;;;;28.15;17.30;;;;;;;6.81;57.36;96570.78;5047727;28;20098;-49
2021/01/09 12:11:59;;;;;;;28.05;17.15;;;;;;;5.88;60.45;96576.03;5044719;28;20144;-47
2021/01/09 12:14:25;;;;;;;28.70;17.73;;;;;;;5.76;60.95;96582.19;5042354;28;20110;-49